Tuesday, June 19, 2018, 12:54 AM EDT
Back to Local

KEEN, Keene, Dillant-hopkins Airport

Location: Keene, NH, United States Lat: 42.9
Local Time: 12:54 AM EDT ( 4:54 GMT) Lon: -72.267
Time Zone: US/Eastern Elev: 488 ft

Show me the last for .
Show Decoded

2018-06-18 23:56 METAR KEEN 190356Z AUTO RMK AO2 SLPNO PWINO FZRANO $ =
2018-06-18 22:56 METAR KEEN 190256Z AUTO RMK AO2 SLPNO 6//// PWINO FZRANO $ =
2018-06-18 20:56 METAR KEEN 190056Z AUTO RMK AO2 SLPNO PWINO FZRANO $ =
2018-06-18 19:56 METAR KEEN 182356Z AUTO RMK AO2 LTG DSNT SE AND S SLPNO 6//// PWINO FZRANO $ =
2018-06-18 18:56 METAR KEEN 182256Z AUTO RMK AO2 LTG DSNT S TSE07B09E11 SLPNO PWINO FZRANO $ =
2018-06-18 18:17 METAR KEEN 182217Z AUTO RMK AO2 LTG DSNT E-SW TSE07B09E11 PWINO FZRANO $ =
2018-06-18 18:09 METAR KEEN 182209Z AUTO VCTS RMK AO2 LTG DSNT E-SW TSE07B09 PWINO FZRANO $ =
2018-06-18 17:56 METAR KEEN 182156Z AUTO TS RMK AO2 LTG DSNT ALQDS TSB10 SLPNO PWINO FZRANO $ =
2018-06-18 17:16 METAR KEEN 182116Z AUTO 7SM TS FEW034 SCT065 BKN085 32/22 RMK AO2 LTG DSNT S-NW
                 TSB10 $ =
2018-06-18 16:56 METAR KEEN 182056Z AUTO 21009KT 10SM FEW065 SCT080 34/22 A2972 RMK AO2 LTG DSNT
                 SW-NW SLP075 T03390217 56030 =
2018-06-18 15:56 METAR KEEN 181956Z AUTO 20012G18KT 10SM CLR 34/22 A2974 RMK AO2 SLP082 T03440217
                 =
2018-06-18 14:56 METAR KEEN 181856Z AUTO 21009G17KT 10SM CLR 34/22 A2978 RMK AO2 SLP094 T03440222
                 =
2018-06-18 13:56 METAR KEEN 181756Z AUTO 20012KT 10SM CLR 33/22 A2981 RMK AO2 SLP105 T03330217
                 10333 20211 58027 =
2018-06-18 12:56 METAR KEEN 181656Z AUTO 21012G19KT 10SM CLR 32/21 A2984 RMK AO2 SLP117 T03220206
                 =
2018-06-18 11:56 METAR KEEN 181556Z AUTO 22010KT 10SM CLR 31/21 A2987 RMK AO2 SLP127 T03110206 =
2018-06-18 10:56 METAR KEEN 181456Z AUTO 22011KT 10SM CLR 29/19 A2989 RMK AO2 SLP135 T02890189
                 58026 =
2018-06-18 09:56 METAR KEEN 181356Z AUTO VRB03KT 10SM CLR 27/18 A2992 RMK AO2 SLP145 T02670178 =
2018-06-18 08:56 METAR KEEN 181256Z AUTO 19008KT 9SM CLR 24/16 A2994 RMK AO2 SLP152 T02440161 =
2018-06-18 07:56 METAR KEEN 181156Z AUTO 27003KT 10SM CLR 22/15 A2997 RMK AO2 SLP160 T02170150
                 10217 20144 56011 =
2018-06-18 06:56 METAR KEEN 181056Z AUTO 00000KT 10SM CLR 18/15 A2997 RMK AO2 SLP161 T01780150 =
2018-06-18 05:56 METAR KEEN 180956Z AUTO 00000KT 10SM CLR 15/13 A2998 RMK AO2 SLP165 T01500133 =
2018-06-18 04:56 METAR KEEN 180856Z AUTO 00000KT 10SM CLR 15/13 A3000 RMK AO2 SLP171 T01500133
                 56011 =
2018-06-18 03:56 METAR KEEN 180756Z AUTO 00000KT 10SM CLR 15/14 A3001 RMK AO2 SLP173 T01500139 =
2018-06-18 02:56 METAR KEEN 180656Z AUTO 00000KT 10SM CLR 15/13 A3001 RMK AO2 SLP175 T01500133 =
2018-06-18 01:56 METAR KEEN 180556Z AUTO 00000KT 10SM CLR 15/13 A3003 RMK AO2 SLP183 T01500133
                 10244 20150 50002 =
2018-06-18 00:56 METAR KEEN 180456Z AUTO 00000KT 10SM CLR 16/13 A3004 RMK AO2 SLP184 T01610133
                 403330089 =

Support USWX by starting your Amazon purchase here.